createdAt,value
2023-03-17T00:01:17.256Z,61.66
2023-03-17T00:03:47.222Z,62.00
2023-03-17T00:06:17.514Z,61.75
2023-03-17T00:08:46.315Z,62.28
2023-03-17T00:11:15.190Z,62.39
2023-03-17T00:13:44.544Z,62.55
2023-03-17T00:16:16.865Z,62.68
2023-03-17T00:18:44.765Z,62.80
2023-03-17T00:21:15.599Z,62.75
2023-03-17T00:23:47.914Z,63.02
2023-03-17T00:26:16.082Z,62.16
2023-03-17T00:28:45.656Z,62.42
2023-03-17T00:31:16.611Z,62.73
2023-03-17T00:33:46.469Z,63.16
2023-03-17T00:36:17.934Z,63.33
2023-03-17T00:38:46.003Z,62.47
2023-03-17T00:41:13.708Z,63.31
2023-03-17T00:43:41.968Z,63.45
2023-03-17T00:46:14.607Z,63.27
2023-03-17T00:48:43.418Z,63.32
2023-03-17T00:51:12.594Z,63.34
2023-03-17T00:53:40.673Z,63.58
2023-03-17T00:56:15.478Z,63.43
2023-03-17T00:58:44.586Z,63.51
2023-03-17T01:01:14.033Z,63.32
2023-03-17T01:03:41.862Z,63.72
2023-03-17T01:06:12.550Z,64.17
2023-03-17T01:08:41.525Z,63.67
2023-03-17T01:11:16.227Z,63.99
2023-03-17T01:13:43.889Z,64.25
2023-03-17T01:16:12.351Z,63.89
2023-03-17T01:18:41.359Z,64.44
2023-03-17T01:21:09.198Z,64.65
2023-03-17T01:23:37.325Z,64.82
2023-03-17T01:26:05.058Z,65.07
2023-03-17T01:28:32.593Z,65.06
2023-03-17T01:31:00.479Z,65.68
2023-03-17T01:33:27.990Z,65.35
2023-03-17T01:35:57.354Z,65.67
2023-03-17T01:38:25.534Z,65.77
2023-03-17T01:40:54.774Z,65.94
2023-03-17T01:43:24.356Z,66.48
2023-03-17T01:46:25.015Z,66.58
2023-03-17T01:49:04.374Z,67.15
2023-03-17T01:51:38.601Z,67.44
2023-03-17T01:54:09.315Z,67.49
2023-03-17T01:56:38.885Z,67.41
2023-03-17T01:59:09.490Z,67.75
2023-03-17T02:01:42.079Z,68.06
2023-03-17T02:04:11.574Z,68.03
2023-03-17T02:06:56.800Z,68.59
2023-03-17T02:09:25.290Z,68.73
2023-03-17T02:11:54.368Z,68.92
2023-03-17T02:14:22.135Z,69.35
2023-03-17T02:16:49.813Z,69.03
2023-03-17T02:19:17.405Z,69.27
2023-03-17T02:21:48.138Z,69.41
2023-03-17T02:24:26.347Z,69.96
2023-03-17T02:26:56.567Z,69.99
2023-03-17T02:29:24.763Z,69.65
2023-03-17T02:31:53.378Z,70.07
2023-03-17T02:34:22.516Z,70.10
2023-03-17T02:36:51.374Z,69.76
2023-03-17T02:39:19.356Z,70.25
2023-03-17T02:41:47.761Z,70.11
2023-03-17T02:44:15.842Z,70.22
2023-03-17T02:46:43.429Z,69.71
2023-03-17T02:49:11.915Z,70.52
2023-03-17T02:51:39.632Z,70.62
2023-03-17T02:54:08.898Z,70.67
2023-03-17T02:56:36.635Z,70.40
2023-03-17T02:59:04.252Z,71.21
2023-03-17T03:01:32.114Z,70.56
2023-03-17T03:03:59.719Z,70.65
2023-03-17T03:06:27.387Z,71.04
2023-03-17T03:08:55.017Z,70.91
2023-03-17T03:11:24.177Z,70.90
2023-03-17T03:13:51.833Z,71.08
2023-03-17T03:16:19.426Z,71.21
2023-03-17T03:18:47.170Z,70.88
2023-03-17T03:21:15.361Z,71.16
2023-03-17T03:23:43.229Z,71.46
2023-03-17T03:26:10.886Z,71.78
2023-03-17T03:28:39.916Z,71.79
2023-03-17T03:31:07.806Z,71.50
2023-03-17T03:33:36.384Z,71.46
2023-03-17T03:36:04.144Z,71.51
2023-03-17T03:38:31.722Z,71.92
2023-03-17T03:40:59.244Z,71.25
2023-03-17T03:43:27.002Z,71.72
2023-03-17T03:45:55.893Z,71.57
2023-03-17T03:48:23.774Z,71.55
2023-03-17T03:50:51.315Z,71.65
2023-03-17T03:53:18.910Z,71.72
2023-03-17T03:55:46.614Z,71.96
2023-03-17T03:58:14.152Z,72.00
2023-03-17T04:00:41.743Z,72.23
2023-03-17T04:03:10.773Z,72.70
2023-03-17T04:05:38.289Z,72.98
2023-03-17T04:08:06.610Z,72.59
2023-03-17T04:10:34.257Z,73.21
2023-03-17T04:13:01.815Z,72.90
2023-03-17T04:15:29.698Z,73.50
2023-03-17T04:17:57.392Z,73.16
2023-03-17T04:20:26.617Z,73.54
2023-03-17T04:22:54.269Z,73.46
2023-03-17T04:25:21.817Z,73.66
2023-03-17T04:27:49.541Z,73.88
2023-03-17T04:30:17.690Z,73.90
2023-03-17T04:32:46.341Z,74.08
2023-03-17T04:35:16.663Z,74.35
2023-03-17T04:37:46.476Z,73.79
2023-03-17T04:40:14.850Z,73.91
2023-03-17T04:42:42.509Z,74.12
2023-03-17T04:45:12.511Z,74.66
2023-03-17T04:47:40.486Z,74.03
2023-03-17T04:50:09.012Z,74.38
2023-03-17T04:52:37.384Z,74.48
2023-03-17T04:55:09.166Z,74.19
2023-03-17T04:57:36.997Z,74.24
2023-03-17T05:00:06.227Z,74.36
2023-03-17T05:02:33.806Z,74.38
2023-03-17T05:05:01.989Z,74.76
2023-03-17T05:07:29.579Z,74.72
2023-03-17T05:09:57.815Z,74.94
2023-03-17T05:12:26.913Z,74.87
2023-03-17T05:14:54.452Z,74.90
2023-03-17T05:17:22.014Z,75.26
2023-03-17T05:19:50.258Z,75.09
2023-03-17T05:22:17.828Z,74.53
2023-03-17T05:24:45.480Z,74.55
2023-03-17T05:27:12.992Z,74.54
2023-03-17T05:29:42.275Z,75.07
2023-03-17T05:32:09.961Z,74.92
2023-03-17T05:34:37.506Z,75.12
2023-03-17T05:37:05.061Z,75.51
2023-03-17T05:39:32.774Z,75.54
2023-03-17T05:42:00.485Z,75.53
2023-03-17T05:44:28.105Z,75.50
2023-03-17T05:46:59.542Z,75.83
2023-03-17T05:49:27.555Z,76.20
2023-03-17T05:51:55.253Z,75.89
2023-03-17T05:54:23.989Z,75.77
2023-03-17T05:56:51.559Z,76.10
2023-03-17T05:59:19.125Z,76.11
2023-03-17T06:01:46.933Z,75.80
2023-03-17T06:04:15.901Z,76.36
2023-03-17T06:06:43.674Z,75.90
2023-03-17T06:09:11.216Z,75.36
2023-03-17T06:11:38.876Z,76.07
2023-03-17T06:14:07.210Z,75.50
2023-03-17T06:16:34.754Z,75.12
2023-03-17T06:19:02.442Z,75.63
2023-03-17T06:21:31.394Z,75.87
2023-03-17T06:23:58.948Z,75.03
2023-03-17T06:26:27.109Z,75.54
2023-03-17T06:28:54.690Z,75.53
2023-03-17T06:31:23.844Z,75.42
2023-03-17T06:33:52.068Z,75.60
2023-03-17T06:36:19.660Z,74.49
2023-03-17T06:38:48.598Z,74.98
2023-03-17T06:41:16.209Z,74.46
2023-03-17T06:43:43.706Z,74.82
2023-03-17T06:46:11.363Z,73.91
2023-03-17T06:48:39.193Z,73.66
2023-03-17T06:51:07.139Z,73.80
2023-03-17T06:53:34.652Z,74.12
2023-03-17T06:56:04.934Z,73.41
2023-03-17T06:58:33.073Z,73.53
2023-03-17T07:01:00.653Z,74.00
2023-03-17T07:03:28.577Z,72.66
2023-03-17T07:05:56.132Z,73.31
2023-03-17T07:08:23.678Z,73.01
2023-03-17T07:10:51.401Z,72.48
2023-03-17T07:13:20.839Z,71.76
2023-03-17T07:15:49.751Z,71.90
2023-03-17T07:18:18.777Z,71.90
2023-03-17T07:20:46.788Z,71.89
2023-03-17T07:23:16.361Z,71.67
2023-03-17T07:25:45.512Z,71.33
2023-03-17T07:28:13.022Z,71.33
2023-03-17T07:30:46.467Z,71.51
2023-03-17T07:33:14.541Z,71.21
2023-03-17T07:35:42.503Z,71.22
2023-03-17T07:38:10.170Z,70.36
2023-03-17T07:40:38.681Z,70.60
2023-03-17T07:43:06.530Z,70.33
2023-03-17T07:45:35.882Z,70.06
2023-03-17T07:48:05.867Z,69.26
2023-03-17T07:50:33.482Z,69.51
2023-03-17T07:53:01.508Z,68.99
2023-03-17T07:55:29.238Z,68.60
2023-03-17T07:57:57.425Z,67.72
2023-03-17T08:00:27.006Z,67.67
2023-03-17T08:03:09.005Z,67.54
2023-03-17T08:05:39.574Z,67.32
2023-03-17T08:08:07.426Z,66.67
2023-03-17T08:10:35.621Z,66.82
2023-03-17T08:13:03.966Z,66.19
2023-03-17T08:15:31.721Z,64.91
2023-03-17T08:17:59.531Z,64.00
2023-03-17T08:20:27.157Z,64.43
2023-03-17T08:22:57.202Z,64.27
2023-03-17T08:25:24.946Z,64.10
2023-03-17T08:27:52.724Z,64.13
2023-03-17T08:30:21.695Z,64.45
2023-03-17T08:32:49.304Z,64.77
2023-03-17T08:35:18.483Z,64.04
2023-03-17T08:37:47.471Z,63.94
2023-03-17T08:40:19.641Z,64.50
2023-03-17T08:42:49.027Z,63.89
2023-03-17T08:45:19.297Z,64.18
2023-03-17T08:47:47.662Z,64.43
2023-03-17T08:50:20.013Z,62.75
2023-03-17T08:52:48.612Z,62.78
2023-03-17T08:55:17.617Z,63.38
2023-03-17T08:57:46.135Z,62.59
2023-03-17T09:00:16.102Z,61.44
2023-03-17T09:02:44.989Z,60.69
2023-03-17T09:05:14.783Z,59.59
2023-03-17T09:07:43.514Z,60.77
2023-03-17T09:10:13.565Z,59.89
2023-03-17T09:12:42.755Z,59.76
2023-03-17T09:15:12.321Z,60.32
2023-03-17T09:17:39.902Z,59.62
2023-03-17T09:20:08.661Z,58.67
2023-03-17T09:22:36.193Z,59.23
2023-03-17T09:25:04.181Z,58.54
2023-03-17T09:27:31.726Z,57.85
2023-03-17T09:30:00.787Z,58.06
2023-03-17T09:32:28.357Z,57.02
2023-03-17T09:34:56.179Z,56.78
2023-03-17T09:37:23.890Z,55.62
2023-03-17T09:39:51.848Z,55.97
2023-03-17T09:42:34.689Z,54.23
2023-03-17T09:45:13.933Z,54.74
2023-03-17T09:47:58.322Z,55.22
2023-03-17T09:50:30.231Z,55.30
2023-03-17T09:52:59.055Z,54.23
2023-03-17T09:55:29.964Z,54.33
2023-03-17T09:57:58.712Z,54.53
2023-03-17T10:00:31.071Z,54.89
2023-03-17T10:02:59.654Z,53.63
2023-03-17T10:05:30.238Z,54.16
2023-03-17T10:08:18.947Z,54.64
2023-03-17T10:10:58.686Z,54.11
2023-03-17T10:13:38.123Z,53.53
2023-03-17T10:16:10.413Z,53.59
2023-03-17T10:18:44.806Z,53.16
2023-03-17T10:21:16.882Z,53.81
2023-03-17T10:23:46.291Z,53.45
2023-03-17T10:26:25.253Z,54.00
2023-03-17T10:28:54.284Z,53.03
2023-03-17T10:31:32.937Z,53.13
2023-03-17T10:34:14.328Z,54.73
2023-03-17T10:36:44.907Z,53.44
2023-03-17T10:39:15.134Z,53.45
2023-03-17T10:41:55.251Z,53.17
2023-03-17T10:44:30.658Z,53.72
2023-03-17T10:46:59.611Z,52.75
2023-03-17T10:49:27.197Z,53.18
2023-03-17T10:51:55.494Z,52.63
2023-03-17T10:54:26.410Z,53.13
2023-03-17T10:57:02.093Z,52.53
2023-03-17T11:02:20.159Z,51.83
2023-03-17T11:04:48.355Z,51.56
2023-03-17T11:07:18.810Z,51.12
2023-03-17T11:09:50.639Z,50.44
2023-03-17T11:12:26.321Z,50.36
2023-03-17T11:15:00.320Z,50.33
2023-03-17T11:17:43.794Z,49.06
2023-03-17T11:20:32.294Z,48.59
2023-03-17T11:23:05.786Z,49.01
2023-03-17T11:25:36.961Z,48.91
2023-03-17T11:28:17.757Z,49.17
2023-03-17T11:30:50.106Z,48.51
2023-03-17T11:33:33.554Z,48.43
2023-03-17T11:36:07.172Z,48.24
2023-03-17T11:38:38.783Z,48.72
2023-03-17T11:41:35.642Z,48.28
2023-03-17T11:44:28.889Z,48.28
2023-03-17T11:47:07.349Z,47.59
2023-03-17T11:49:38.563Z,47.62
2023-03-17T11:52:21.878Z,47.08
2023-03-17T11:54:59.029Z,47.80
2023-03-17T11:57:32.196Z,47.47
2023-03-17T12:00:03.254Z,46.85
2023-03-17T12:02:44.428Z,47.12
2023-03-17T12:05:16.812Z,46.21
2023-03-17T12:07:48.918Z,46.57
2023-03-17T12:10:23.463Z,46.98
2023-03-17T12:12:56.321Z,46.79
2023-03-17T12:15:32.357Z,46.00
2023-03-17T12:18:06.789Z,46.11
2023-03-17T12:20:46.295Z,45.32
2023-03-17T12:23:22.349Z,45.54
2023-03-17T12:25:57.557Z,46.50
2023-03-17T12:28:28.381Z,46.00
2023-03-17T12:31:02.205Z,47.35
2023-03-17T12:33:35.463Z,47.07
2023-03-17T12:36:05.286Z,46.08
2023-03-17T12:38:39.010Z,46.14
2023-03-17T12:41:29.622Z,46.35
2023-03-17T12:44:05.791Z,44.72
2023-03-17T12:46:50.181Z,43.89
2023-03-17T12:49:34.790Z,43.24
2023-03-17T12:52:14.334Z,43.51
2023-03-17T12:54:47.797Z,42.94
2023-03-17T12:57:19.116Z,43.56
2023-03-17T12:59:49.708Z,43.42
2023-03-17T13:02:25.290Z,42.27
2023-03-17T13:04:57.897Z,42.69
2023-03-17T13:07:32.453Z,43.26
2023-03-17T13:10:22.009Z,42.46
2023-03-17T13:13:10.997Z,41.83
2023-03-17T13:15:59.769Z,42.19
2023-03-17T13:18:51.306Z,42.33
2023-03-17T13:21:26.317Z,43.01
2023-03-17T13:24:01.270Z,43.16
2023-03-17T13:27:01.794Z,43.24
2023-03-17T13:29:53.579Z,42.85
2023-03-17T13:32:38.173Z,43.25
2023-03-17T13:35:40.108Z,42.42
2023-03-17T13:38:32.525Z,42.20
2023-03-17T13:41:19.967Z,43.01
2023-03-17T13:44:06.896Z,43.39
2023-03-17T13:46:42.622Z,42.77
2023-03-17T13:49:24.401Z,42.66
2023-03-17T13:51:59.936Z,42.89
2023-03-17T13:54:33.635Z,42.77
2023-03-17T13:57:24.677Z,43.01
2023-03-17T14:00:00.699Z,42.52
2023-03-17T14:02:32.565Z,43.44
2023-03-17T14:05:03.268Z,43.11
2023-03-17T14:07:42.276Z,42.34
2023-03-17T14:10:17.985Z,42.70
2023-03-17T14:12:53.089Z,42.37
2023-03-17T14:15:26.011Z,43.00
2023-03-17T14:17:58.412Z,41.74
2023-03-17T14:20:28.279Z,41.67
2023-03-17T14:22:58.143Z,42.15
2023-03-17T14:25:27.609Z,42.48
2023-03-17T14:27:58.844Z,43.13
2023-03-17T14:30:30.457Z,42.50
2023-03-17T14:33:04.505Z,42.24
2023-03-17T14:35:33.793Z,42.13
2023-03-17T14:38:02.669Z,42.02
2023-03-17T14:40:36.669Z,41.75
2023-03-17T14:43:06.134Z,42.50
2023-03-17T14:45:48.603Z,42.31
2023-03-17T14:48:18.685Z,42.79
2023-03-17T14:50:52.093Z,43.33
2023-03-17T14:53:22.350Z,42.42
2023-03-17T14:55:49.904Z,43.00
2023-03-17T14:58:25.231Z,42.69
2023-03-17T15:00:58.119Z,43.17
2023-03-17T15:03:31.511Z,43.84
2023-03-17T15:06:08.161Z,44.16
2023-03-17T15:08:47.078Z,44.28
2023-03-17T15:11:21.373Z,43.79
2023-03-17T15:13:51.636Z,44.23
2023-03-17T15:16:23.769Z,44.63
2023-03-17T15:18:58.289Z,44.06
2023-03-17T15:21:33.546Z,44.31
2023-03-17T15:24:05.721Z,44.55
2023-03-17T15:26:33.433Z,44.42
2023-03-17T15:29:02.383Z,44.81
2023-03-17T15:31:30.646Z,44.51
2023-03-17T15:33:58.967Z,45.11
2023-03-17T15:36:32.616Z,45.10
2023-03-17T15:39:00.517Z,45.36
2023-03-17T15:41:28.121Z,46.21
2023-03-17T15:43:56.708Z,46.07
2023-03-17T15:46:30.713Z,46.17
2023-03-17T15:48:58.767Z,46.32
2023-03-17T15:51:26.378Z,46.09
2023-03-17T15:53:53.933Z,46.54
2023-03-17T15:56:22.353Z,47.06
2023-03-17T15:58:52.131Z,46.71
2023-03-17T16:01:20.894Z,46.91
2023-03-17T16:03:50.465Z,46.84
2023-03-17T16:06:19.309Z,46.66
2023-03-17T16:08:46.886Z,46.64
2023-03-17T16:11:19.211Z,47.38
2023-03-17T16:13:48.063Z,47.08
2023-03-17T16:16:22.574Z,47.21
2023-03-17T16:18:52.505Z,47.02
2023-03-17T16:21:20.808Z,47.08
2023-03-17T16:23:49.739Z,46.96
2023-03-17T16:26:17.391Z,48.06
2023-03-17T16:28:46.253Z,48.08
2023-03-17T16:31:32.020Z,47.73
2023-03-17T16:34:01.415Z,47.65
2023-03-17T16:36:29.189Z,47.76
2023-03-17T16:38:57.053Z,47.82
2023-03-17T16:41:27.190Z,47.99
2023-03-17T16:43:59.802Z,48.22
2023-03-17T16:46:28.942Z,48.80
2023-03-17T16:48:56.580Z,48.88
2023-03-17T16:51:25.662Z,48.52
2023-03-17T16:53:53.349Z,49.04
2023-03-17T16:56:23.774Z,48.67
2023-03-17T16:58:51.689Z,49.11
2023-03-17T17:01:22.602Z,49.72
2023-03-17T17:03:50.500Z,49.40
2023-03-17T17:06:20.561Z,49.68
2023-03-17T17:08:50.802Z,49.88
2023-03-17T17:11:19.995Z,49.94
2023-03-17T17:13:49.024Z,49.93
2023-03-17T17:16:21.254Z,50.00
2023-03-17T17:18:48.962Z,51.10
2023-03-17T17:21:16.644Z,50.67
2023-03-17T17:23:44.130Z,50.98
2023-03-17T17:26:13.017Z,50.75
2023-03-17T17:28:40.564Z,50.60
2023-03-17T17:31:09.188Z,50.89
2023-03-17T17:33:38.265Z,51.20
2023-03-17T17:36:08.918Z,51.55
2023-03-17T17:38:36.452Z,51.64
2023-03-17T17:41:05.683Z,52.19
2023-03-17T17:43:34.654Z,52.25
2023-03-17T17:46:02.263Z,52.81
2023-03-17T17:48:30.335Z,52.28
2023-03-17T17:50:58.719Z,52.44
2023-03-17T17:53:26.285Z,52.57
2023-03-17T17:55:53.847Z,52.52
2023-03-17T17:58:23.435Z,52.13
2023-03-17T18:00:54.955Z,52.23
2023-03-17T18:03:25.093Z,52.34
2023-03-17T18:05:53.233Z,52.60
2023-03-17T18:08:21.038Z,52.73
2023-03-17T18:10:51.444Z,52.71
2023-03-17T18:13:19.455Z,52.94
2023-03-17T18:15:47.043Z,53.40
2023-03-17T18:18:15.933Z,53.29
2023-03-17T18:20:43.527Z,53.48
2023-03-17T18:23:11.225Z,53.90
2023-03-17T18:25:38.728Z,54.63
2023-03-17T18:28:06.377Z,54.58
2023-03-17T18:30:34.996Z,54.75
2023-03-17T18:33:07.385Z,54.99
2023-03-17T18:35:36.616Z,55.60
2023-03-17T18:38:04.466Z,55.48
2023-03-17T18:40:32.263Z,56.21
2023-03-17T18:42:59.803Z,56.61
2023-03-17T18:45:27.586Z,57.64
2023-03-17T18:47:55.345Z,56.46
2023-03-17T18:50:23.052Z,57.37
2023-03-17T18:52:51.978Z,57.29
2023-03-17T18:55:19.924Z,57.95
2023-03-17T18:57:47.514Z,58.02
2023-03-17T19:00:18.485Z,57.93
2023-03-17T19:02:46.872Z,58.04
2023-03-17T19:05:15.236Z,58.43
2023-03-17T19:07:43.226Z,58.06
2023-03-17T19:10:13.849Z,58.92
2023-03-17T19:12:42.290Z,58.73
2023-03-17T19:15:12.352Z,58.62
2023-03-17T19:17:40.204Z,58.91
2023-03-17T19:20:09.932Z,59.24
2023-03-17T19:22:37.613Z,59.37
2023-03-17T19:25:06.229Z,60.06
2023-03-17T19:27:35.282Z,60.71
2023-03-17T19:30:02.833Z,60.10
2023-03-17T19:32:30.398Z,60.59
2023-03-17T19:34:57.954Z,61.07
2023-03-17T19:37:25.933Z,61.56
2023-03-17T19:39:53.518Z,60.64
2023-03-17T19:42:21.081Z,60.32
2023-03-17T19:44:49.962Z,60.79
2023-03-17T19:47:17.549Z,61.26
2023-03-17T19:49:45.850Z,61.62
2023-03-17T19:52:13.493Z,61.91
2023-03-17T19:54:44.541Z,61.47
2023-03-17T19:57:13.098Z,61.91
2023-03-17T19:59:40.786Z,62.92
2023-03-17T20:02:14.006Z,63.56
2023-03-17T20:04:42.844Z,63.54
2023-03-17T20:07:11.262Z,64.00
2023-03-17T20:09:39.230Z,63.27
2023-03-17T20:12:07.089Z,64.15
2023-03-17T20:14:34.733Z,64.05
2023-03-17T20:17:02.321Z,64.51
2023-03-17T20:19:31.567Z,64.51
2023-03-17T20:21:59.119Z,64.82
2023-03-17T20:24:28.551Z,65.22
2023-03-17T20:26:57.872Z,65.67
2023-03-17T20:29:25.878Z,66.13
2023-03-17T20:31:53.814Z,66.50
2023-03-17T20:34:21.528Z,67.07
2023-03-17T20:36:51.802Z,67.31
2023-03-17T20:39:20.589Z,67.64
2023-03-17T20:41:48.925Z,67.86
2023-03-17T20:44:17.617Z,68.25
2023-03-17T20:46:45.703Z,68.63
2023-03-17T20:49:13.679Z,68.96
2023-03-17T20:51:41.379Z,69.15
2023-03-17T20:54:11.023Z,69.35
2023-03-17T20:56:39.576Z,69.13
2023-03-17T20:59:09.516Z,69.75
2023-03-17T21:01:38.999Z,70.21
2023-03-17T21:04:08.919Z,69.97
2023-03-17T21:06:36.649Z,70.16
2023-03-17T21:09:04.799Z,70.66
2023-03-17T21:11:33.666Z,70.73
2023-03-17T21:14:03.275Z,71.00
2023-03-17T21:16:31.301Z,71.42
2023-03-17T21:18:58.958Z,71.53
2023-03-17T21:21:27.213Z,71.75
2023-03-17T21:23:54.926Z,71.99
2023-03-17T21:26:22.908Z,71.90
2023-03-17T21:28:52.491Z,72.22
2023-03-17T21:31:20.219Z,72.08
2023-03-17T21:33:50.300Z,72.33
2023-03-17T21:36:18.449Z,72.11
2023-03-17T21:38:46.009Z,72.01
2023-03-17T21:41:30.232Z,72.13
2023-03-17T21:43:59.084Z,73.00
2023-03-17T21:46:26.896Z,73.14
2023-03-17T21:48:55.858Z,72.88
2023-03-17T21:51:24.269Z,72.65
2023-03-17T21:53:52.751Z,73.10
2023-03-17T21:56:20.758Z,73.39
2023-03-17T21:58:48.916Z,73.20
2023-03-17T22:01:18.951Z,73.05
2023-03-17T22:03:46.569Z,73.21
2023-03-17T22:06:15.542Z,72.72
2023-03-17T22:08:43.964Z,73.09
2023-03-17T22:11:14.089Z,73.23
2023-03-17T22:13:41.937Z,72.79
2023-03-17T22:16:10.130Z,72.48
2023-03-17T22:18:39.440Z,72.98
2023-03-17T22:21:08.076Z,72.76
2023-03-17T22:23:40.729Z,72.59
2023-03-17T22:26:09.605Z,72.24
2023-03-17T22:28:37.781Z,72.81
2023-03-17T22:31:11.932Z,72.36
2023-03-17T22:33:41.470Z,72.24
2023-03-17T22:36:09.740Z,72.38
2023-03-17T22:38:37.615Z,72.23
2023-03-17T22:41:07.708Z,72.31
2023-03-17T22:43:35.725Z,72.19
2023-03-17T22:46:03.632Z,72.31
2023-03-17T22:48:32.482Z,72.22
2023-03-17T22:51:03.055Z,72.39
2023-03-17T22:53:31.420Z,71.98
2023-03-17T22:55:59.138Z,71.95
2023-03-17T22:58:27.329Z,72.72
2023-03-17T23:00:56.187Z,72.28
2023-03-17T23:03:24.873Z,72.14
2023-03-17T23:05:54.361Z,72.32
2023-03-17T23:08:23.448Z,72.74
2023-03-17T23:10:52.039Z,72.91
2023-03-17T23:13:20.927Z,72.73
2023-03-17T23:15:49.055Z,72.51
2023-03-17T23:18:16.825Z,72.83
2023-03-17T23:20:44.504Z,72.88
2023-03-17T23:23:12.630Z,73.04
2023-03-17T23:25:41.872Z,73.40
2023-03-17T23:28:10.043Z,72.96
2023-03-17T23:30:38.485Z,72.96
2023-03-17T23:33:07.510Z,72.97
2023-03-17T23:35:35.654Z,73.69
2023-03-17T23:38:03.970Z,73.14
2023-03-17T23:40:32.500Z,72.51
2023-03-17T23:43:01.840Z,72.76
2023-03-17T23:45:29.426Z,72.81
2023-03-17T23:47:57.407Z,73.02
2023-03-17T23:50:25.036Z,73.49
2023-03-17T23:52:53.936Z,73.64
2023-03-17T23:55:21.739Z,73.81
2023-03-17T23:57:50.227Z,73.61
